Startpagina
METAR-TAF:

METAR-TAF

Vliegvelden :

Irene, Zuid-Afrika

breedte: 25-54-36S, lengte: 28-12-40E, hoogte: 1523 m

Actueel weer

Dit bericht is 11 uur en het 50 minuten geleden gemaakt, om 06:21 UTC
Wind 3 kt uit het zuidoosten
Temperatuur 10°C
Vochtigheid 37%
Druk 1026 hPa
Zicht 10 km of meer
geen wolken onder 1500 m en geen cumulonimbus

METAR: FAIR 250621Z 13003KT CAVOK 10/M04 Q1026

Tijdstip: 20:11 (18:11 UTC)


TAF: ontbreekt

Waarnemingen en weersverwachtingen van meer dan 4000 vliegvelden (METAR en TAF).

De beschikbare stations zijn de gele en rode punten op de kaart.

Ga met uw muis naar het station om de naam te zien.

Klik dan om waarnemingen en weersverwachtingen te zien.

kaart wijzigen: klik op de groene knoppen met een zwart kruis om in te zoomen, op de groene knop met een streepje om uit te zoomen of op de groene pijlen voor aangrenzende kaarten.


METAR-TAF: